createdAt,value
2022-12-23T00:01:39.249Z,8.20
2022-12-23T00:04:08.179Z,8.20
2022-12-23T00:06:36.548Z,8.20
2022-12-23T00:09:05.267Z,8.10
2022-12-23T00:11:33.753Z,8.10
2022-12-23T00:14:21.891Z,8.10
2022-12-23T00:16:52.473Z,8.10
2022-12-23T00:19:21.277Z,8.00
2022-12-23T00:21:49.701Z,8.00
2022-12-23T00:24:18.639Z,8.00
2022-12-23T00:26:47.091Z,7.90
2022-12-23T00:29:15.852Z,7.90
2022-12-23T00:31:44.211Z,7.80
2022-12-23T00:34:14.436Z,7.80
2022-12-23T00:36:42.855Z,7.80
2022-12-23T00:39:34.485Z,7.80
2022-12-23T00:42:20.107Z,7.70
2022-12-23T00:44:48.794Z,7.70
2022-12-23T00:47:30.991Z,7.70
2022-12-23T00:50:01.218Z,7.70
2022-12-23T00:52:29.553Z,7.60
2022-12-23T00:54:58.433Z,7.60
2022-12-23T00:57:28.094Z,7.60
2022-12-23T00:59:56.801Z,7.60
2022-12-23T01:02:42.576Z,7.50
2022-12-23T01:05:30.551Z,7.50
2022-12-23T01:07:58.824Z,7.50
2022-12-23T01:10:27.583Z,7.50
2022-12-23T01:12:56.009Z,7.50
2022-12-23T01:15:25.420Z,7.40
2022-12-23T01:17:54.084Z,7.40
2022-12-23T01:20:24.391Z,7.40
2022-12-23T01:22:52.738Z,7.40
2022-12-23T01:25:21.645Z,7.40
2022-12-23T01:27:50.169Z,7.30
2022-12-23T01:30:19.174Z,7.30
2022-12-23T01:32:47.641Z,7.30
2022-12-23T01:35:16.508Z,7.20
2022-12-23T01:37:46.353Z,7.20
2022-12-23T01:40:15.238Z,7.10
2022-12-23T01:42:45.356Z,7.10
2022-12-23T01:45:19.082Z,7.10
2022-12-23T01:47:51.653Z,7.10
2022-12-23T01:50:23.964Z,7.10
2022-12-23T01:53:08.212Z,7.00
2022-12-23T01:55:41.547Z,7.00
2022-12-23T01:58:14.218Z,7.00
2022-12-23T02:01:01.397Z,7.00
2022-12-23T02:03:45.417Z,7.00
2022-12-23T02:06:39.469Z,7.00
2022-12-23T02:09:22.059Z,6.90
2022-12-23T02:12:11.730Z,6.90
2022-12-23T02:15:20.758Z,6.80
2022-12-23T02:18:00.110Z,6.80
2022-12-23T02:21:02.884Z,6.70
2022-12-23T02:24:00.702Z,6.70
2022-12-23T02:26:52.426Z,6.60
2022-12-23T02:29:59.083Z,6.60
2022-12-23T02:32:35.654Z,6.50
2022-12-23T02:35:13.676Z,6.40
2022-12-23T02:37:48.489Z,6.40
2022-12-23T02:40:27.463Z,6.30
2022-12-23T02:43:03.267Z,6.20
2022-12-23T02:45:37.769Z,6.20
2022-12-23T02:48:13.970Z,6.10
2022-12-23T02:50:45.995Z,6.10
2022-12-23T02:53:20.659Z,6.00
2022-12-23T02:55:51.672Z,6.00
2022-12-23T02:58:24.903Z,6.00
2022-12-23T03:00:54.429Z,5.90
2022-12-23T03:03:25.368Z,5.90
2022-12-23T03:05:56.174Z,5.80
2022-12-23T03:08:29.696Z,5.80
2022-12-23T03:11:05.940Z,5.70
2022-12-23T03:13:44.961Z,5.70
2022-12-23T03:16:21.993Z,5.70
2022-12-23T03:19:05.167Z,5.70
2022-12-23T03:21:39.790Z,5.70
2022-12-23T03:24:18.044Z,5.70
2022-12-23T03:26:54.712Z,5.70
2022-12-23T03:29:28.605Z,5.70
2022-12-23T03:32:01.171Z,5.70
2022-12-23T03:34:35.612Z,5.70
2022-12-23T03:37:09.202Z,5.70
2022-12-23T03:39:44.422Z,5.70
2022-12-23T03:42:20.412Z,5.70
2022-12-23T03:45:28.025Z,5.70
2022-12-23T03:47:45.945Z,5.70
2022-12-23T03:50:18.701Z,5.70
2022-12-23T03:52:54.136Z,5.70
2022-12-23T03:55:27.426Z,5.70
2022-12-23T03:58:03.412Z,5.70
2022-12-23T04:00:37.497Z,5.70
2022-12-23T04:03:17.653Z,5.70
2022-12-23T04:05:53.637Z,5.70
2022-12-23T04:08:28.483Z,5.70
2022-12-23T04:10:57.738Z,5.70
2022-12-23T04:13:28.208Z,5.60
2022-12-23T04:15:59.520Z,5.60
2022-12-23T04:18:29.235Z,5.60
2022-12-23T04:20:59.173Z,5.60
2022-12-23T04:23:27.865Z,5.50
2022-12-23T04:25:56.625Z,5.50
2022-12-23T04:28:25.508Z,5.40
2022-12-23T04:30:54.311Z,5.40
2022-12-23T04:33:23.127Z,5.40
2022-12-23T04:35:51.996Z,5.40
2022-12-23T04:38:22.130Z,5.40
2022-12-23T04:40:50.575Z,5.40
2022-12-23T04:43:19.566Z,5.40
2022-12-23T04:45:52.458Z,5.40
2022-12-23T04:48:21.652Z,5.50
2022-12-23T04:50:50.165Z,5.50
2022-12-23T04:53:18.920Z,5.50
2022-12-23T04:55:53.036Z,5.60
2022-12-23T04:58:24.209Z,5.60
2022-12-23T05:01:02.481Z,5.60
2022-12-23T05:03:32.166Z,5.60
2022-12-23T05:06:00.720Z,5.60
2022-12-23T05:08:29.701Z,5.70
2022-12-23T05:10:59.633Z,5.70
2022-12-23T05:13:28.696Z,5.70
2022-12-23T05:15:57.343Z,5.70
2022-12-23T05:18:26.674Z,5.70
2022-12-23T05:20:55.601Z,5.70
2022-12-23T05:23:24.387Z,5.70
2022-12-23T05:25:53.950Z,5.70
2022-12-23T05:28:24.644Z,5.70
2022-12-23T05:30:59.556Z,5.70
2022-12-23T05:33:29.511Z,5.70
2022-12-23T05:35:58.729Z,5.70
2022-12-23T05:38:27.878Z,5.80
2022-12-23T05:40:56.370Z,5.70
2022-12-23T05:43:26.474Z,5.80
2022-12-23T05:45:55.092Z,5.70
2022-12-23T05:48:23.830Z,5.80
2022-12-23T05:50:53.225Z,5.70
2022-12-23T05:53:23.972Z,5.70
2022-12-23T05:55:53.015Z,5.70
2022-12-23T05:58:21.836Z,5.80
2022-12-23T06:00:51.646Z,5.80
2022-12-23T06:03:20.447Z,5.80
2022-12-23T06:05:51.974Z,5.80
2022-12-23T06:08:21.021Z,5.80
2022-12-23T06:10:49.990Z,5.80
2022-12-23T06:13:18.820Z,5.80
2022-12-23T06:15:48.491Z,5.80
2022-12-23T06:18:18.833Z,5.80
2022-12-23T06:20:47.756Z,5.80
2022-12-23T06:23:16.701Z,5.80
2022-12-23T06:25:45.208Z,5.80
2022-12-23T06:28:13.959Z,5.80
2022-12-23T06:30:42.716Z,5.80
2022-12-23T06:33:11.389Z,5.80
2022-12-23T06:35:41.179Z,5.90
2022-12-23T06:38:12.278Z,5.80
2022-12-23T06:40:41.317Z,5.80
2022-12-23T06:43:13.563Z,5.80
2022-12-23T06:45:42.353Z,5.70
2022-12-23T06:48:11.287Z,5.70
2022-12-23T06:50:41.471Z,5.70
2022-12-23T06:53:11.039Z,5.70
2022-12-23T06:55:39.629Z,5.70
2022-12-23T06:58:08.897Z,5.70
2022-12-23T07:00:38.178Z,5.80
2022-12-23T07:03:07.210Z,5.70
2022-12-23T07:05:37.917Z,5.70
2022-12-23T07:08:08.440Z,5.70
2022-12-23T07:10:36.991Z,5.70
2022-12-23T07:13:06.150Z,5.70
2022-12-23T07:15:36.627Z,5.70
2022-12-23T07:18:06.335Z,5.70
2022-12-23T07:20:34.985Z,5.70
2022-12-23T07:23:04.648Z,5.70
2022-12-23T07:25:34.440Z,5.70
2022-12-23T07:28:04.166Z,5.70
2022-12-23T07:30:33.008Z,5.70
2022-12-23T07:33:02.054Z,5.90
2022-12-23T07:35:31.194Z,5.70
2022-12-23T07:38:00.457Z,5.80
2022-12-23T07:40:29.331Z,5.80
2022-12-23T07:43:00.937Z,5.80
2022-12-23T07:45:30.666Z,5.80
2022-12-23T07:48:01.454Z,5.80
2022-12-23T07:50:30.762Z,5.90
2022-12-23T07:52:59.595Z,5.90
2022-12-23T07:55:28.207Z,5.90
2022-12-23T07:57:56.905Z,5.90
2022-12-23T08:00:26.849Z,6.00
2022-12-23T08:02:55.583Z,6.00
2022-12-23T08:05:24.553Z,6.00
2022-12-23T08:07:53.643Z,6.20
2022-12-23T08:10:22.657Z,6.00
2022-12-23T08:12:51.975Z,6.10
2022-12-23T08:15:21.056Z,6.10
2022-12-23T08:17:51.372Z,6.10
2022-12-23T08:20:20.052Z,6.20
2022-12-23T08:22:48.628Z,6.10
2022-12-23T08:25:17.028Z,6.10
2022-12-23T08:27:46.145Z,6.20
2022-12-23T08:30:15.360Z,6.20
2022-12-23T08:32:44.286Z,6.20
2022-12-23T08:35:14.190Z,6.20
2022-12-23T08:37:43.382Z,6.30
2022-12-23T08:40:13.171Z,6.30
2022-12-23T08:42:41.793Z,6.30
2022-12-23T08:45:10.948Z,6.30
2022-12-23T08:47:39.723Z,6.30
2022-12-23T08:50:09.011Z,6.40
2022-12-23T08:52:39.297Z,6.40
2022-12-23T08:55:08.153Z,6.40
2022-12-23T08:57:37.456Z,6.40
2022-12-23T09:00:06.851Z,6.50
2022-12-23T09:02:35.613Z,6.50
2022-12-23T09:05:04.568Z,6.50
2022-12-23T09:07:33.463Z,6.60
2022-12-23T09:10:03.683Z,6.60
2022-12-23T09:12:32.584Z,6.60
2022-12-23T09:15:01.055Z,6.60
2022-12-23T09:17:29.736Z,6.60
2022-12-23T09:19:58.605Z,6.60
2022-12-23T09:22:27.858Z,6.50
2022-12-23T09:25:01.376Z,6.50
2022-12-23T09:27:35.624Z,6.50
2022-12-23T09:30:04.505Z,6.50
2022-12-23T09:32:33.956Z,6.50
2022-12-23T09:35:02.505Z,6.50
2022-12-23T09:37:31.388Z,6.50
2022-12-23T09:40:00.123Z,6.50
2022-12-23T09:42:47.881Z,6.50
2022-12-23T09:45:27.402Z,6.50
2022-12-23T09:47:57.770Z,6.60
2022-12-23T09:50:30.029Z,6.60
2022-12-23T09:53:02.995Z,6.60
2022-12-23T09:55:41.167Z,6.70
2022-12-23T09:58:21.118Z,6.60
2022-12-23T10:01:09.367Z,6.70
2022-12-23T10:03:56.454Z,6.70
2022-12-23T10:06:28.402Z,6.70
2022-12-23T10:09:00.835Z,6.90
2022-12-23T10:11:33.239Z,6.80
2022-12-23T10:14:20.531Z,6.80
2022-12-23T10:16:53.041Z,6.90
2022-12-23T10:19:28.200Z,6.90
2022-12-23T10:22:02.048Z,6.90
2022-12-23T10:24:39.555Z,6.90
2022-12-23T10:27:24.222Z,7.00
2022-12-23T10:29:56.793Z,7.00
2022-12-23T10:32:34.224Z,7.00
2022-12-23T10:35:11.463Z,7.00
2022-12-23T10:37:45.777Z,7.10
2022-12-23T10:40:22.563Z,7.10
2022-12-23T10:43:03.366Z,7.10
2022-12-23T10:45:48.045Z,7.10
2022-12-23T10:48:26.793Z,7.20
2022-12-23T10:51:01.275Z,7.20
2022-12-23T10:53:37.001Z,7.30
2022-12-23T10:56:07.645Z,7.30
2022-12-23T10:58:39.450Z,7.30
2022-12-23T11:01:16.413Z,7.40
2022-12-23T11:04:00.625Z,7.40
2022-12-23T11:06:35.015Z,7.40
2022-12-23T11:09:06.461Z,7.40
2022-12-23T11:11:59.404Z,7.40
2022-12-23T11:14:33.733Z,7.40
2022-12-23T11:17:04.486Z,7.50
2022-12-23T11:19:32.995Z,7.50
2022-12-23T11:22:02.449Z,7.50
2022-12-23T11:24:35.413Z,7.50
2022-12-23T11:27:09.055Z,7.50
2022-12-23T11:29:40.056Z,7.60
2022-12-23T11:32:19.343Z,7.60
2022-12-23T11:34:49.222Z,7.60
2022-12-23T11:37:29.819Z,7.60
2022-12-23T11:39:58.260Z,7.60
2022-12-23T11:42:31.362Z,7.60
2022-12-23T11:45:01.624Z,7.60
2022-12-23T11:47:39.126Z,7.70
2022-12-23T11:50:30.452Z,7.70
2022-12-23T11:53:12.647Z,7.70
2022-12-23T11:55:48.098Z,7.70
2022-12-23T11:58:20.751Z,7.70
2022-12-23T12:00:56.492Z,7.70
2022-12-23T12:03:30.328Z,7.80
2022-12-23T12:06:01.241Z,7.80
2022-12-23T12:08:39.795Z,7.90
2022-12-23T12:11:15.299Z,7.90
2022-12-23T12:13:46.159Z,8.00
2022-12-23T12:16:36.456Z,8.10
2022-12-23T12:19:14.041Z,8.10
2022-12-23T12:21:42.749Z,8.30
2022-12-23T12:24:19.725Z,8.30
2022-12-23T12:26:52.429Z,8.30
2022-12-23T12:29:26.865Z,8.40
2022-12-23T12:31:58.907Z,8.40
2022-12-23T12:34:38.990Z,8.40
2022-12-23T12:37:14.575Z,8.50
2022-12-23T12:39:50.193Z,8.60
2022-12-23T12:42:26.574Z,8.60
2022-12-23T12:45:04.808Z,8.70
2022-12-23T12:47:54.185Z,8.70
2022-12-23T12:50:30.371Z,8.70
2022-12-23T12:53:05.065Z,8.70
2022-12-23T12:55:38.324Z,8.60
2022-12-23T12:58:23.444Z,8.60
2022-12-23T13:01:06.658Z,8.60
2022-12-23T13:04:05.473Z,8.50
2022-12-23T13:06:42.398Z,8.50
2022-12-23T13:09:20.252Z,8.50
2022-12-23T13:11:55.826Z,8.40
2022-12-23T13:14:34.819Z,8.40
2022-12-23T13:17:12.012Z,8.40
2022-12-23T13:19:49.723Z,8.30
2022-12-23T13:22:29.327Z,8.30
2022-12-23T13:25:11.164Z,8.30
2022-12-23T13:27:54.782Z,8.20
2022-12-23T13:30:25.683Z,8.10
2022-12-23T13:33:07.499Z,8.10
2022-12-23T13:35:43.562Z,8.00
2022-12-23T13:38:26.809Z,7.90
2022-12-23T13:41:03.781Z,7.90
2022-12-23T13:43:41.571Z,7.80
2022-12-23T13:46:20.730Z,7.80
2022-12-23T13:49:00.218Z,7.70
2022-12-23T13:51:38.732Z,7.70
2022-12-23T13:54:18.284Z,7.70
2022-12-23T13:56:51.196Z,7.70
2022-12-23T13:59:20.434Z,7.80
2022-12-23T14:01:52.659Z,7.80
2022-12-23T14:04:34.541Z,7.90
2022-12-23T14:07:09.227Z,8.00
2022-12-23T14:09:40.897Z,8.00
2022-12-23T14:12:21.897Z,8.10
2022-12-23T14:15:13.495Z,8.20
2022-12-23T14:17:53.233Z,8.30
2022-12-23T14:20:36.525Z,8.30
2022-12-23T14:23:20.072Z,8.40
2022-12-23T14:26:22.386Z,8.50
2022-12-23T14:29:26.749Z,8.50
2022-12-23T14:31:58.133Z,8.60
2022-12-23T14:34:30.762Z,8.60
2022-12-23T14:37:35.078Z,8.60
2022-12-23T14:40:41.324Z,8.70
2022-12-23T14:43:33.162Z,8.70
2022-12-23T14:46:04.919Z,8.60
2022-12-23T14:49:37.653Z,8.60
2022-12-23T14:52:44.670Z,8.70
2022-12-23T14:55:44.727Z,8.70
2022-12-23T14:58:49.717Z,8.60
2022-12-23T15:01:21.657Z,8.60
2022-12-23T15:03:57.587Z,8.60
2022-12-23T15:06:36.353Z,8.60
2022-12-23T15:09:07.578Z,8.60
2022-12-23T15:11:38.295Z,8.60
2022-12-23T15:14:13.221Z,8.60
2022-12-23T15:16:45.242Z,8.50
2022-12-23T15:19:25.004Z,8.50
2022-12-23T15:22:17.266Z,8.50
2022-12-23T15:24:48.233Z,8.40
2022-12-23T15:27:29.573Z,8.50
2022-12-23T15:29:59.492Z,8.30
2022-12-23T15:32:30.125Z,8.40
2022-12-23T15:35:04.365Z,8.30
2022-12-23T15:37:34.655Z,8.30
2022-12-23T15:40:12.081Z,8.30
2022-12-23T15:42:48.763Z,8.30
2022-12-23T15:45:33.288Z,8.20
2022-12-23T15:48:03.038Z,8.30
2022-12-23T15:50:32.296Z,8.20
2022-12-23T15:53:06.589Z,8.20
2022-12-23T15:55:37.566Z,8.20
2022-12-23T15:58:07.689Z,8.20
2022-12-23T16:00:40.767Z,8.20
2022-12-23T16:03:26.436Z,8.10
2022-12-23T16:05:55.155Z,8.10
2022-12-23T16:08:30.266Z,8.10
2022-12-23T16:11:13.964Z,8.10
2022-12-23T16:13:58.825Z,8.00
2022-12-23T16:16:39.107Z,8.00
2022-12-23T16:19:28.296Z,8.00
2022-12-23T16:21:56.792Z,8.00
2022-12-23T16:24:25.574Z,7.90
2022-12-23T16:26:56.378Z,7.90
2022-12-23T16:29:26.707Z,7.90
2022-12-23T16:32:01.639Z,7.90
2022-12-23T16:34:32.570Z,7.90
2022-12-23T16:37:01.006Z,7.80
2022-12-23T16:39:29.981Z,7.80
2022-12-23T16:41:58.719Z,7.80
2022-12-23T16:44:28.940Z,7.80
2022-12-23T16:46:57.462Z,7.80
2022-12-23T16:49:33.141Z,7.70
2022-12-23T16:52:02.825Z,7.70
2022-12-23T16:54:31.588Z,7.70
2022-12-23T16:57:00.158Z,7.60
2022-12-23T16:59:30.258Z,7.60
2022-12-23T17:02:03.453Z,7.60
2022-12-23T17:04:33.072Z,7.60
2022-12-23T17:07:01.777Z,7.50
2022-12-23T17:09:30.540Z,7.50
2022-12-23T17:11:59.303Z,7.50
2022-12-23T17:14:29.545Z,7.50
2022-12-23T17:16:58.604Z,7.50
2022-12-23T17:19:28.811Z,7.40
2022-12-23T17:22:02.087Z,7.40
2022-12-23T17:24:31.683Z,7.40
2022-12-23T17:27:00.309Z,7.40
2022-12-23T17:29:30.335Z,7.40
2022-12-23T17:31:58.783Z,7.40
2022-12-23T17:34:27.448Z,7.30
2022-12-23T17:36:55.961Z,7.30
2022-12-23T17:39:24.748Z,7.30
2022-12-23T17:41:53.670Z,7.30
2022-12-23T17:44:22.473Z,7.30
2022-12-23T17:46:52.647Z,7.30
2022-12-23T17:49:21.303Z,7.10
2022-12-23T17:51:49.985Z,7.30
2022-12-23T17:54:23.925Z,7.30
2022-12-23T17:56:52.904Z,7.30
2022-12-23T17:59:22.672Z,7.30
2022-12-23T18:01:52.738Z,7.30
2022-12-23T18:04:21.669Z,7.30
2022-12-23T18:06:50.597Z,7.20
2022-12-23T18:09:21.494Z,7.20
2022-12-23T18:11:49.849Z,7.20
2022-12-23T18:14:25.176Z,7.20
2022-12-23T18:16:55.218Z,7.20
2022-12-23T18:19:24.535Z,7.20
2022-12-23T18:21:53.876Z,7.20
2022-12-23T18:24:22.974Z,7.20
2022-12-23T18:26:51.565Z,7.20
2022-12-23T18:29:20.386Z,7.20
2022-12-23T18:31:51.848Z,7.20
2022-12-23T18:34:22.266Z,7.20
2022-12-23T18:36:52.559Z,7.20
2022-12-23T18:39:21.776Z,7.10
2022-12-23T18:41:50.460Z,7.20
2022-12-23T18:44:21.195Z,7.10
2022-12-23T18:46:50.476Z,7.20
2022-12-23T18:49:19.467Z,7.10
2022-12-23T18:51:49.654Z,7.10
2022-12-23T18:54:18.724Z,7.00
2022-12-23T18:56:48.016Z,7.10
2022-12-23T18:59:24.301Z,7.10
2022-12-23T19:01:58.619Z,7.10
2022-12-23T19:04:28.267Z,7.00
2022-12-23T19:06:58.925Z,7.10
2022-12-23T19:09:28.101Z,7.00
2022-12-23T19:11:56.902Z,7.00
2022-12-23T19:14:25.572Z,7.00
2022-12-23T19:16:54.265Z,7.00
2022-12-23T19:19:23.159Z,7.10
2022-12-23T19:21:52.957Z,6.90
2022-12-23T19:24:23.309Z,7.00
2022-12-23T19:26:51.796Z,6.90
2022-12-23T19:29:21.494Z,6.80
2022-12-23T19:31:49.887Z,6.80
2022-12-23T19:34:18.673Z,6.80
2022-12-23T19:36:47.231Z,6.70
2022-12-23T19:39:18.293Z,6.70
2022-12-23T19:41:48.071Z,6.80
2022-12-23T19:44:16.879Z,6.70
2022-12-23T19:46:45.539Z,6.70
2022-12-23T19:49:19.845Z,6.70
2022-12-23T19:51:49.921Z,6.60
2022-12-23T19:54:20.033Z,6.60
2022-12-23T19:56:51.894Z,6.50
2022-12-23T19:59:21.949Z,6.50
2022-12-23T20:01:51.043Z,6.50
2022-12-23T20:04:20.703Z,6.50
2022-12-23T20:06:49.197Z,6.50
2022-12-23T20:09:19.598Z,6.50
2022-12-23T20:11:50.785Z,6.50
2022-12-23T20:14:21.869Z,6.50
2022-12-23T20:16:51.807Z,6.50
2022-12-23T20:19:20.938Z,6.50
2022-12-23T20:21:50.008Z,6.50
2022-12-23T20:24:19.919Z,6.60
2022-12-23T20:26:48.817Z,6.50
2022-12-23T20:29:19.269Z,6.50
2022-12-23T20:31:48.192Z,6.50
2022-12-23T20:34:18.764Z,6.40
2022-12-23T20:36:47.730Z,6.30
2022-12-23T20:39:16.842Z,6.30
2022-12-23T20:41:45.412Z,6.20
2022-12-23T20:44:44.052Z,6.10
2022-12-23T20:47:04.402Z,6.10
2022-12-23T20:49:33.362Z,6.00
2022-12-23T20:52:02.096Z,6.00
2022-12-23T20:54:33.720Z,5.90
2022-12-23T20:57:04.002Z,5.80
2022-12-23T20:59:33.307Z,5.70
2022-12-23T21:02:03.682Z,5.70
2022-12-23T21:04:32.724Z,5.60
2022-12-23T21:07:01.478Z,5.60
2022-12-23T21:09:30.792Z,5.60
2022-12-23T21:11:59.482Z,5.70
2022-12-23T21:14:28.281Z,5.70
2022-12-23T21:16:56.762Z,5.70
2022-12-23T21:19:27.375Z,5.70
2022-12-23T21:21:55.865Z,5.70
2022-12-23T21:24:24.754Z,5.70
2022-12-23T21:26:56.752Z,5.70
2022-12-23T21:29:26.628Z,5.80
2022-12-23T21:31:56.200Z,5.80
2022-12-23T21:34:27.311Z,5.90
2022-12-23T21:36:56.330Z,5.90
2022-12-23T21:39:25.270Z,5.90
2022-12-23T21:41:53.739Z,5.90
2022-12-23T21:44:22.496Z,5.90
2022-12-23T21:46:52.000Z,5.90
2022-12-23T21:49:21.531Z,5.90
2022-12-23T21:51:51.527Z,5.90
2022-12-23T21:54:20.811Z,5.90
2022-12-23T21:56:49.365Z,5.90
2022-12-23T21:59:18.858Z,5.90
2022-12-23T22:01:47.758Z,5.90
2022-12-23T22:04:16.866Z,5.90
2022-12-23T22:06:46.965Z,5.90
2022-12-23T22:09:19.914Z,5.90
2022-12-23T22:11:49.451Z,5.90
2022-12-23T22:14:19.257Z,5.90
2022-12-23T22:16:50.744Z,5.90
2022-12-23T22:19:19.913Z,5.90
2022-12-23T22:21:48.402Z,5.90
2022-12-23T22:24:18.830Z,5.90
2022-12-23T22:26:47.262Z,5.90
2022-12-23T22:29:15.879Z,5.90
2022-12-23T22:31:47.001Z,5.90
2022-12-23T22:34:17.771Z,5.80
2022-12-23T22:36:46.468Z,5.80
2022-12-23T22:39:20.440Z,5.70
2022-12-23T22:41:51.797Z,5.70
2022-12-23T22:44:21.700Z,5.60
2022-12-23T22:46:50.663Z,5.60
2022-12-23T22:49:19.507Z,5.60
2022-12-23T22:51:48.156Z,5.60
2022-12-23T22:54:16.960Z,5.50
2022-12-23T22:56:46.857Z,5.50
2022-12-23T22:59:26.843Z,5.50
2022-12-23T23:01:55.877Z,5.40
2022-12-23T23:04:25.075Z,5.40
2022-12-23T23:06:53.727Z,5.40
2022-12-23T23:09:24.044Z,5.30
2022-12-23T23:11:52.957Z,5.30
2022-12-23T23:14:21.845Z,5.20
2022-12-23T23:16:51.871Z,5.10
2022-12-23T23:19:21.484Z,5.10
2022-12-23T23:21:50.074Z,5.10
2022-12-23T23:24:18.909Z,5.00
2022-12-23T23:26:47.792Z,5.00
2022-12-23T23:29:16.872Z,4.90
2022-12-23T23:31:46.018Z,4.90
2022-12-23T23:34:17.329Z,4.90
2022-12-23T23:36:45.895Z,4.90
2022-12-23T23:39:15.116Z,4.90
2022-12-23T23:41:44.094Z,4.90
2022-12-23T23:44:13.547Z,4.90
2022-12-23T23:46:42.004Z,4.90
2022-12-23T23:49:11.144Z,4.90
2022-12-23T23:51:41.716Z,4.90
2022-12-23T23:54:10.720Z,4.90
2022-12-23T23:56:39.689Z,4.90
2022-12-23T23:59:09.715Z,5.00
